Time;durP1;ratioP1;P1;durP2;ratioP2;P2;SDS_P1;SDS_P2;PMS_P1;PMS_P2;Temp;Humidity;BMP_temperature;BMP_pressure;BME280_temperature;BME280_humidity;BME280_pressure;Samples;Min_cycle;Max_cycle;Signal;HPM_P1;HPM_P2
2022/08/10 00:03:12;;;;;;;4.95;4.45;;;;;;;;;;10101598;28;20047;-70
2022/08/10 00:08:08;;;;;;;4.57;4.05;;;;;;;;;;10099527;28;20162;-69
2022/08/10 00:13:05;;;;;;;9.38;4.60;;;;;;;;;;10098933;28;20055;-69
2022/08/10 00:18:01;;;;;;;7.93;4.53;;;;;;;;;;10110622;28;20528;-68
2022/08/10 00:22:58;;;;;;;4.85;4.22;;;;;;;;;;10109092;28;20050;-69
2022/08/10 00:27:54;;;;;;;4.65;4.10;;;;;;;;;;10088930;28;20086;-69
2022/08/10 00:32:59;;;;;;;4.57;3.88;;;;;;;;;;10098129;28;20090;-70
2022/08/10 00:37:55;;;;;;;4.82;4.32;;;;;;;;;;10098240;28;20093;-70
2022/08/10 00:42:53;;;;;;;5.28;4.53;;;;;;;;;;10104468;28;20051;-70
2022/08/10 00:47:49;;;;;;;5.10;4.57;;;;;;;;;;10100282;28;20556;-70
2022/08/10 00:52:46;;;;;;;6.40;4.32;;;;;;;;;;10090879;28;20588;-69
2022/08/10 00:57:42;;;;;;;6.10;4.18;;;;;;;;;;10090338;28;20043;-69
2022/08/10 01:02:39;;;;;;;8.38;4.47;;;;;;;;;;10095879;28;20078;-70
2022/08/10 01:07:35;;;;;;;6.70;4.28;;;;;;;;;;10093651;28;20059;-69
2022/08/10 01:12:50;;;;;;;4.22;3.63;;;;;;;;;;10103555;28;20097;-69
2022/08/10 01:17:53;;;;;;;9.98;4.80;;;;;;;;;;10095512;28;20043;-69
2022/08/10 01:23:08;;;;;;;5.63;4.40;;;;;;;;;;10110511;28;20082;-69
2022/08/10 01:28:23;;;;;;;5.70;4.18;;;;;;;;;;10105127;28;20496;-69
2022/08/10 01:33:19;;;;;;;6.65;4.35;;;;;;;;;;10101711;28;20500;-69
2022/08/10 01:38:28;;;;;;;5.57;4.07;;;;;;;;;;10095383;28;20046;-70
2022/08/10 01:43:26;;;;;;;5.32;4.18;;;;;;;;;;10110224;28;20108;-69
2022/08/10 01:48:30;;;;;;;4.57;4.15;;;;;;;;;;10085596;28;20148;-69
2022/08/10 01:53:33;;;;;;;8.27;4.20;;;;;;;;;;10111399;28;20050;-69
2022/08/10 01:58:37;;;;;;;10.63;4.10;;;;;;;;;;10087805;28;20089;-70
2022/08/10 02:03:34;;;;;;;4.70;4.22;;;;;;;;;;10102115;28;20142;-70
2022/08/10 02:08:52;;;;;;;5.72;3.70;;;;;;;;;;10105940;28;20039;-70
2022/08/10 02:14:02;;;;;;;5.15;4.43;;;;;;;;;;10106396;28;20084;-69
2022/08/10 02:18:59;;;;;;;4.93;3.90;;;;;;;;;;10099514;28;20042;-69
2022/08/10 02:23:56;;;;;;;5.30;3.97;;;;;;;;;;10107940;28;20039;-70
2022/08/10 02:28:55;;;;;;;4.60;3.70;;;;;;;;;;10090997;28;20051;-69
2022/08/10 02:33:53;;;;;;;6.18;3.90;;;;;;;;;;10087978;28;20070;-69
2022/08/10 02:38:56;;;;;;;4.78;4.05;;;;;;;;;;10079585;28;20042;-70
2022/08/10 02:44:00;;;;;;;6.00;4.18;;;;;;;;;;10079665;28;20078;-70
2022/08/10 02:49:21;;;;;;;6.10;4.20;;;;;;;;;;10090538;28;20051;-70
2022/08/10 02:54:22;;;;;;;6.75;3.70;;;;;;;;;;10099574;28;20081;-71
2022/08/10 02:59:22;;;;;;;4.50;3.80;;;;;;;;;;10094652;28;20093;-70
2022/08/10 03:04:23;;;;;;;5.53;4.07;;;;;;;;;;10094648;28;20170;-70
2022/08/10 03:09:40;;;;;;;5.47;4.00;;;;;;;;;;10103456;28;20762;-69
2022/08/10 03:14:37;;;;;;;5.57;4.22;;;;;;;;;;10107325;28;20483;-69
2022/08/10 03:19:33;;;;;;;4.60;3.83;;;;;;;;;;10103486;28;20549;-69
2022/08/10 03:24:50;;;;;;;4.75;4.30;;;;;;;;;;10102457;28;22033;-70
2022/08/10 03:29:47;;;;;;;5.95;3.92;;;;;;;;;;10105763;28;20138;-69
2022/08/10 03:35:04;;;;;;;5.80;4.40;;;;;;;;;;10107078;28;20065;-69
2022/08/10 03:40:01;;;;;;;5.32;4.10;;;;;;;;;;10104967;28;20074;-70
2022/08/10 03:44:59;;;;;;;7.22;4.45;;;;;;;;;;10093997;28;20512;-70
2022/08/10 03:49:57;;;;;;;7.75;4.75;;;;;;;;;;10098892;28;20561;-69
2022/08/10 03:54:58;;;;;;;7.70;5.03;;;;;;;;;;10092567;28;20133;-69
2022/08/10 03:59:55;;;;;;;8.15;4.65;;;;;;;;;;10099092;28;20089;-69
2022/08/10 04:04:51;;;;;;;5.38;4.88;;;;;;;;;;10096123;28;20417;-69
2022/08/10 04:09:48;;;;;;;5.32;4.38;;;;;;;;;;10093372;28;20102;-69
2022/08/10 04:14:51;;;;;;;5.47;4.70;;;;;;;;;;10114327;28;20460;-69
2022/08/10 04:19:49;;;;;;;5.13;4.50;;;;;;;;;;10096539;28;20051;-69
2022/08/10 04:24:47;;;;;;;5.78;4.72;;;;;;;;;;10111333;28;20073;-69
2022/08/10 04:29:43;;;;;;;5.38;4.28;;;;;;;;;;10087195;28;20074;-70
2022/08/10 04:34:40;;;;;;;5.65;5.13;;;;;;;;;;10097838;28;20098;-68
2022/08/10 04:39:37;;;;;;;5.88;4.95;;;;;;;;;;10102084;28;20071;-68
2022/08/10 04:44:34;;;;;;;6.03;5.00;;;;;;;;;;10090559;28;20085;-68
2022/08/10 04:49:30;;;;;;;7.85;5.13;;;;;;;;;;10058538;28;20600;-68
2022/08/10 04:54:46;;;;;;;5.88;4.90;;;;;;;;;;10087607;28;20515;-69
2022/08/10 04:59:42;;;;;;;7.65;5.25;;;;;;;;;;10084994;28;20580;-68
2022/08/10 05:04:39;;;;;;;6.00;5.10;;;;;;;;;;10087590;28;20109;-68
2022/08/10 05:09:36;;;;;;;7.03;5.05;;;;;;;;;;10093403;28;20149;-68
2022/08/10 05:14:52;;;;;;;8.55;4.90;;;;;;;;;;10089067;28;20406;-68
2022/08/10 05:19:50;;;;;;;6.70;5.07;;;;;;;;;;10083667;28;20043;-68
2022/08/10 05:25:01;;;;;;;5.13;4.38;;;;;;;;;;10085952;28;20133;-67
2022/08/10 05:29:58;;;;;;;7.00;4.97;;;;;;;;;;10088218;28;20109;-67
2022/08/10 05:34:58;;;;;;;5.00;4.50;;;;;;;;;;10084607;28;20646;-67
2022/08/10 05:39:54;;;;;;;6.88;4.97;;;;;;;;;;10088955;28;20074;-67
2022/08/10 05:44:51;;;;;;;6.95;5.68;;;;;;;;;;10084012;28;20081;-67
2022/08/10 05:49:48;;;;;;;4.53;4.10;;;;;;;;;;10077601;28;20079;-67
2022/08/10 05:54:44;;;;;;;4.47;4.07;;;;;;;;;;10094162;28;20166;-67
2022/08/10 05:59:46;;;;;;;6.90;4.40;;;;;;;;;;10086445;28;20158;-67
2022/08/10 06:05:06;;;;;;;6.78;4.30;;;;;;;;;;10076103;28;20699;-68
2022/08/10 06:10:03;;;;;;;6.28;4.35;;;;;;;;;;10074432;28;20051;-69
2022/08/10 06:15:05;;;;;;;;;;;;;;;;;;10079252;28;20054;-68
2022/08/10 06:20:06;;;;;;;4.60;4.00;;;;;;;;;;10088621;28;20398;-68
2022/08/10 06:25:03;;;;;;;4.82;4.30;;;;;;;;;;10105939;28;20087;-68
2022/08/10 06:30:20;;;;;;;8.50;4.70;;;;;;;;;;10103365;28;20046;-66
2022/08/10 06:35:18;;;;;;;7.90;4.40;;;;;;;;;;10094726;28;20718;-67
2022/08/10 06:40:14;;;;;;;4.40;3.78;;;;;;;;;;10096440;28;20130;-67
2022/08/10 06:45:12;;;;;;;6.85;5.15;;;;;;;;;;10078367;28;20061;-68
2022/08/10 06:50:11;;;;;;;6.53;4.10;;;;;;;;;;10092562;28;20143;-68
2022/08/10 06:55:10;;;;;;;6.88;4.28;;;;;;;;;;10094667;28;20916;-68
2022/08/10 07:00:07;;;;;;;6.80;4.22;;;;;;;;;;10083850;28;20398;-68
2022/08/10 07:05:05;;;;;;;5.30;4.28;;;;;;;;;;10074724;28;20048;-68
2022/08/10 07:10:02;;;;;;;6.13;4.53;;;;;;;;;;10090217;28;20086;-68
2022/08/10 07:15:00;;;;;;;5.65;5.15;;;;;;;;;;10085598;28;20537;-67
2022/08/10 07:19:58;;;;;;;4.60;4.20;;;;;;;;;;10085730;28;20460;-67
2022/08/10 07:24:55;;;;;;;6.07;4.50;;;;;;;;;;10107667;28;20039;-66
2022/08/10 07:29:52;;;;;;;6.63;4.55;;;;;;;;;;10096989;28;20081;-67
2022/08/10 07:34:52;;;;;;;5.35;4.85;;;;;;;;;;10090225;28;20121;-67
2022/08/10 07:39:50;;;;;;;9.68;5.90;;;;;;;;;;10097922;28;20469;-66
2022/08/10 07:45:00;;;;;;;6.53;5.15;;;;;;;;;;10100367;28;20054;-66
2022/08/10 07:50:00;;;;;;;6.28;5.50;;;;;;;;;;10085923;28;20061;-67
2022/08/10 07:54:57;;;;;;;5.53;5.03;;;;;;;;;;10096028;28;20567;-67
2022/08/10 08:00:00;;;;;;;5.75;5.18;;;;;;;;;;10086964;28;20589;-67
2022/08/10 08:05:01;;;;;;;6.95;5.50;;;;;;;;;;10089803;28;20141;-67
2022/08/10 08:09:58;;;;;;;6.72;5.55;;;;;;;;;;10092853;28;20074;-68
2022/08/10 08:14:57;;;;;;;7.82;6.57;;;;;;;;;;10083919;28;20503;-67
2022/08/10 08:19:56;;;;;;;6.93;6.32;;;;;;;;;;10090358;28;20137;-68
2022/08/10 08:24:55;;;;;;;7.40;6.80;;;;;;;;;;10091253;28;20134;-67
2022/08/10 08:29:51;;;;;;;6.93;6.30;;;;;;;;;;10089545;28;20130;-67
2022/08/10 08:34:51;;;;;;;6.90;6.22;;;;;;;;;;10096723;28;20070;-67
2022/08/10 08:39:47;;;;;;;7.35;6.38;;;;;;;;;;10087609;28;20051;-67
2022/08/10 08:45:06;;;;;;;11.10;6.63;;;;;;;;;;10091164;28;20051;-68
2022/08/10 08:50:09;;;;;;;7.38;6.88;;;;;;;;;;10087078;28;20579;-67
2022/08/10 08:55:05;;;;;;;8.63;7.32;;;;;;;;;;10088851;28;20469;-67
2022/08/10 09:00:22;;;;;;;7.63;7.03;;;;;;;;;;10091768;28;20536;-67
2022/08/10 09:05:33;;;;;;;7.75;7.15;;;;;;;;;;10093539;28;20493;-67
2022/08/10 09:11:09;;;;;;;7.85;7.30;;;;;;;;;;10088866;28;20040;-67
2022/08/10 09:16:24;;;;;;;8.50;7.90;;;;;;;;;;10085417;28;20516;-67
2022/08/10 09:21:40;;;;;;;8.00;7.40;;;;;;;;;;10094277;28;20618;-67
2022/08/10 09:26:56;;;;;;;8.32;7.72;;;;;;;;;;10097058;28;20043;-67
2022/08/10 09:32:06;;;;;;;9.43;8.52;;;;;;;;;;10099519;28;20142;-67
2022/08/10 09:37:24;;;;;;;8.50;7.93;;;;;;;;;;10101763;28;20057;-67
2022/08/10 09:42:59;;;;;;;8.05;7.55;;;;;;;;;;10085583;28;20417;-67
2022/08/10 09:48:34;;;;;;;7.82;7.32;;;;;;;;;;10081428;28;20126;-67
2022/08/10 09:53:43;;;;;;;8.35;7.78;;;;;;;;;;10086594;28;20070;-67
2022/08/10 09:58:39;;;;;;;8.18;7.57;;;;;;;;;;10090589;28;20473;-68
2022/08/10 10:03:59;;;;;;;8.60;7.80;;;;;;;;;;10073569;28;20070;-67
2022/08/10 10:09:04;;;;;;;8.63;8.02;;;;;;;;;;10080328;28;20154;-67
2022/08/10 10:14:24;;;;;;;8.10;7.60;;;;;;;;;;10100774;28;20054;-67
2022/08/10 10:19:28;;;;;;;8.50;7.90;;;;;;;;;;10091855;28;20051;-68
2022/08/10 10:24:44;;;;;;;8.15;7.55;;;;;;;;;;10096349;28;20051;-67
2022/08/10 10:29:40;;;;;;;8.85;8.15;;;;;;;;;;10090822;28;20756;-67
2022/08/10 10:35:15;;;;;;;8.60;8.10;;;;;;;;;;10103134;28;20512;-68
2022/08/10 10:40:13;;;;;;;9.15;8.55;;;;;;;;;;10071091;28;20152;-66
2022/08/10 10:45:25;;;;;;;8.57;7.90;;;;;;;;;;10078198;28;20133;-67
2022/08/10 10:50:40;;;;;;;8.43;7.93;;;;;;;;;;10089074;28;20938;-66
2022/08/10 10:55:48;;;;;;;9.07;8.43;;;;;;;;;;10081892;28;20051;-66
2022/08/10 11:01:04;;;;;;;8.88;8.32;;;;;;;;;;10079115;28;20042;-66
2022/08/10 11:06:14;;;;;;;8.85;8.25;;;;;;;;;;10080870;28;20593;-66
2022/08/10 11:11:19;;;;;;;9.75;9.05;;;;;;;;;;10097471;28;20749;-66
2022/08/10 11:16:51;;;;;;;9.25;8.65;;;;;;;;;;10097102;28;20059;-67
2022/08/10 11:22:01;;;;;;;9.13;8.52;;;;;;;;;;10097405;28;20493;-66
2022/08/10 11:27:04;;;;;;;9.30;8.70;;;;;;;;;;10094224;28;20544;-66
2022/08/10 11:32:26;;;;;;;10.35;9.55;;;;;;;;;;10101005;28;20043;-66
2022/08/10 11:37:25;;;;;;;9.77;9.07;;;;;;;;;;10087394;28;20530;-66
2022/08/10 11:42:30;;;;;;;9.40;8.68;;;;;;;;;;10095942;28;20515;-66
2022/08/10 11:47:31;;;;;;;8.85;8.25;;;;;;;;;;10098885;28;20051;-66
2022/08/10 11:52:47;;;;;;;9.13;8.43;;;;;;;;;;10092817;28;20498;-66
2022/08/10 11:57:45;;;;;;;9.13;8.52;;;;;;;;;;10094730;28;20566;-66
2022/08/10 12:03:04;;;;;;;9.70;9.07;;;;;;;;;;10099731;28;20125;-66
2022/08/10 12:08:01;;;;;;;9.45;8.63;;;;;;;;;;10094908;28;20066;-66
2022/08/10 12:13:21;;;;;;;9.38;8.65;;;;;;;;;;10111485;28;20043;-66
2022/08/10 12:18:29;;;;;;;9.00;8.40;;;;;;;;;;10105279;28;20800;-66
2022/08/10 12:23:28;;;;;;;9.15;8.45;;;;;;;;;;10091748;28;20047;-66
2022/08/10 12:28:50;;;;;;;8.68;8.07;;;;;;;;;;10094122;28;20525;-66
2022/08/10 12:33:48;;;;;;;9.68;8.95;;;;;;;;;;10097700;28;20039;-66
2022/08/10 12:39:04;;;;;;;8.90;8.30;;;;;;;;;;10097106;28;20054;-67
2022/08/10 12:44:03;;;;;;;9.80;9.10;;;;;;;;;;10085887;28;20050;-67
2022/08/10 12:49:13;;;;;;;9.13;8.50;;;;;;;;;;10087378;28;20393;-66
2022/08/10 12:54:10;;;;;;;8.98;8.38;;;;;;;;;;10091981;28;20609;-66
2022/08/10 12:59:09;;;;;;;8.23;7.72;;;;;;;;;;10085376;28;20508;-66
2022/08/10 13:04:13;;;;;;;8.75;8.18;;;;;;;;;;10092526;28;20513;-67
2022/08/10 13:09:20;;;;;;;8.85;8.13;;;;;;;;;;10091731;28;20159;-67
2022/08/10 13:14:21;;;;;;;9.43;8.73;;;;;;;;;;10098893;28;20625;-67
2022/08/10 13:19:20;;;;;;;9.23;8.60;;;;;;;;;;10099238;28;20535;-67
2022/08/10 13:24:22;;;;;;;8.60;8.00;;;;;;;;;;10086878;28;20093;-66
2022/08/10 13:29:20;;;;;;;8.50;7.90;;;;;;;;;;10093223;28;20070;-67
2022/08/10 13:34:21;;;;;;;10.15;8.23;;;;;;;;;;10089317;28;20043;-67
2022/08/10 13:39:39;;;;;;;8.55;7.80;;;;;;;;;;10084334;28;20059;-67
2022/08/10 13:44:56;;;;;;;8.70;8.10;;;;;;;;;;10087893;28;20158;-67
2022/08/10 13:50:05;;;;;;;8.68;8.07;;;;;;;;;;10075539;28;20074;-67
2022/08/10 13:55:08;;;;;;;8.80;8.18;;;;;;;;;;10083465;28;20062;-67
2022/08/10 14:00:07;;;;;;;8.82;7.93;;;;;;;;;;10080259;28;20101;-67
2022/08/10 14:05:25;;;;;;;8.88;8.07;;;;;;;;;;10090766;28;20051;-66
2022/08/10 14:10:22;;;;;;;8.73;8.13;;;;;;;;;;10083227;28;20223;-67
2022/08/10 14:15:39;;;;;;;8.88;8.27;;;;;;;;;;10078340;28;20083;-67
2022/08/10 14:20:37;;;;;;;9.10;8.40;;;;;;;;;;10091515;28;20102;-67
2022/08/10 14:25:46;;;;;;;8.68;8.07;;;;;;;;;;10087155;28;20070;-67
2022/08/10 14:30:42;;;;;;;9.10;8.50;;;;;;;;;;10086372;28;20149;-67
2022/08/10 14:35:42;;;;;;;8.40;7.80;;;;;;;;;;10089117;28;20047;-67
2022/08/10 14:41:00;;;;;;;8.68;8.07;;;;;;;;;;10078943;28;20062;-67
2022/08/10 14:46:04;;;;;;;9.18;8.30;;;;;;;;;;10082326;28;20616;-67
2022/08/10 14:51:01;;;;;;;8.55;7.90;;;;;;;;;;10085704;28;20055;-67
2022/08/10 14:56:03;;;;;;;8.80;8.10;;;;;;;;;;10094004;28;20097;-67
2022/08/10 15:01:00;;;;;;;8.43;7.82;;;;;;;;;;10090109;28;20113;-69
2022/08/10 15:05:57;;;;;;;8.68;8.07;;;;;;;;;;10096915;28;20693;-67
2022/08/10 15:10:58;;;;;;;9.27;8.57;;;;;;;;;;10099052;28;20043;-67
2022/08/10 15:15:56;;;;;;;8.70;8.00;;;;;;;;;;10087276;28;20071;-67
2022/08/10 15:21:09;;;;;;;9.15;8.45;;;;;;;;;;10107003;28;20130;-66
2022/08/10 15:26:13;;;;;;;9.05;8.23;;;;;;;;;;10095614;28;20043;-67
2022/08/10 15:31:14;;;;;;;8.45;7.82;;;;;;;;;;10087158;28;20051;-67
2022/08/10 15:41:50;;;;;;;8.45;7.85;;;;;;;;;;10086466;28;20687;-67
2022/08/10 15:47:01;;;;;;;8.87;8.27;;;;;;;;;;10085178;28;20110;-67
2022/08/10 15:52:00;;;;;;;9.02;8.32;;;;;;;;;;10086012;28;20715;-67
2022/08/10 15:57:17;;;;;;;8.27;7.78;;;;;;;;;;10099125;28;20513;-67
2022/08/10 16:02:17;;;;;;;7.60;6.90;;;;;;;;;;10097800;28;20083;-67
2022/08/10 16:07:18;;;;;;;7.78;7.18;;;;;;;;;;10083859;28;20046;-66
2022/08/10 16:12:45;;;;;;;7.72;7.22;;;;;;;;;;10090999;28;20520;-67
2022/08/10 16:18:04;;;;;;;7.53;6.97;;;;;;;;;;10081613;28;20666;-67
2022/08/10 16:23:03;;;;;;;8.25;7.55;;;;;;;;;;10089145;28;20504;-67
2022/08/10 16:28:04;;;;;;;8.48;7.78;;;;;;;;;;10089260;28;20077;-67
2022/08/10 16:33:02;;;;;;;9.45;8.52;;;;;;;;;;10097204;28;20509;-67
2022/08/10 16:38:01;;;;;;;8.32;7.72;;;;;;;;;;10079211;28;20074;-67
2022/08/10 16:43:00;;;;;;;8.93;8.23;;;;;;;;;;10084658;28;20063;-67
2022/08/10 16:47:56;;;;;;;9.32;8.52;;;;;;;;;;10081237;28;20145;-67
2022/08/10 16:52:53;;;;;;;8.70;8.00;;;;;;;;;;10087544;28;20062;-67
2022/08/10 16:57:51;;;;;;;8.13;7.53;;;;;;;;;;10078377;28;20098;-67
2022/08/10 17:02:49;;;;;;;8.38;7.78;;;;;;;;;;10076303;28;20097;-67
2022/08/10 17:07:46;;;;;;;8.32;7.57;;;;;;;;;;10086677;28;20061;-67
2022/08/10 17:12:45;;;;;;;10.27;9.20;;;;;;;;;;10086359;28;20043;-67
2022/08/10 17:17:46;;;;;;;10.10;9.20;;;;;;;;;;10088411;28;20154;-67
2022/08/10 17:22:43;;;;;;;9.23;8.40;;;;;;;;;;10089678;28;20138;-67
2022/08/10 17:27:40;;;;;;;9.70;8.13;;;;;;;;;;10085094;28;20057;-67
2022/08/10 17:33:17;;;;;;;9.07;8.32;;;;;;;;;;10093711;28;20117;-66
2022/08/10 17:38:18;;;;;;;8.43;7.65;;;;;;;;;;10084311;28;20126;-67
2022/08/10 17:43:22;;;;;;;8.43;7.82;;;;;;;;;;10085319;28;20055;-66
2022/08/10 17:48:40;;;;;;;7.65;7.03;;;;;;;;;;10087333;28;20073;-67
2022/08/10 17:53:42;;;;;;;10.18;8.25;;;;;;;;;;10096175;28;20478;-67
2022/08/10 17:58:39;;;;;;;7.60;6.95;;;;;;;;;;10081229;28;20581;-67
2022/08/10 18:03:39;;;;;;;7.70;7.10;;;;;;;;;;10087735;28;20501;-67
2022/08/10 18:08:39;;;;;;;7.85;7.25;;;;;;;;;;10079374;28;20043;-67
2022/08/10 18:13:36;;;;;;;9.90;6.65;;;;;;;;;;10081322;28;20494;-67
2022/08/10 18:18:51;;;;;;;7.45;6.88;;;;;;;;;;10080695;28;20058;-67
2022/08/10 18:23:59;;;;;;;7.70;7.10;;;;;;;;;;10088151;28;20055;-67
2022/08/10 18:28:55;;;;;;;8.25;7.65;;;;;;;;;;10082243;28;20130;-67
2022/08/10 18:33:53;;;;;;;8.25;7.50;;;;;;;;;;10086351;28;20509;-67
2022/08/10 18:38:51;;;;;;;8.65;7.90;;;;;;;;;;10080981;28;20126;-67
2022/08/10 18:44:22;;;;;;;7.82;7.10;;;;;;;;;;10087851;28;20102;-67
2022/08/10 18:49:30;;;;;;;7.55;6.85;;;;;;;;;;10033169;28;20047;-67
2022/08/10 18:54:31;;;;;;;8.05;7.35;;;;;;;;;;10089522;28;20063;-67
2022/08/10 18:59:40;;;;;;;7.80;6.90;;;;;;;;;;10081033;28;20098;-67
2022/08/10 19:04:59;;;;;;;10.18;7.43;;;;;;;;;;10081363;28;20991;-67
2022/08/10 19:10:11;;;;;;;7.47;6.80;;;;;;;;;;10092673;28;20035;-67
2022/08/10 19:15:13;;;;;;;8.25;7.32;;;;;;;;;;10097040;28;20101;-67
2022/08/10 19:20:17;;;;;;;7.85;7.20;;;;;;;;;;10084238;28;20498;-67
2022/08/10 19:25:20;;;;;;;8.25;7.22;;;;;;;;;;10074629;28;20051;-67
2022/08/10 19:31:03;;;;;;;8.00;7.32;;;;;;;;;;10079357;28;20130;-66
2022/08/10 19:35:59;;;;;;;7.88;6.53;;;;;;;;;;10071739;28;20105;-67
2022/08/10 19:41:09;;;;;;;7.93;7.13;;;;;;;;;;10076934;28;20067;-67
2022/08/10 19:46:08;;;;;;;8.27;7.10;;;;;;;;;;10083421;28;20142;-66
2022/08/10 19:51:13;;;;;;;7.95;7.20;;;;;;;;;;10105179;28;20050;-67
2022/08/10 19:56:19;;;;;;;7.97;7.20;;;;;;;;;;10085763;28;20102;-66
2022/08/10 20:01:29;;;;;;;7.88;7.07;;;;;;;;;;10084425;28;20501;-66
2022/08/10 20:06:48;;;;;;;8.93;7.45;;;;;;;;;;10062017;28;20624;-67
2022/08/10 20:12:01;;;;;;;7.13;6.40;;;;;;;;;;10104907;28;20082;-67
2022/08/10 20:17:24;;;;;;;6.85;6.25;;;;;;;;;;10087206;28;20146;-67
2022/08/10 20:22:25;;;;;;;6.77;5.97;;;;;;;;;;10064314;28;20039;-68
2022/08/10 20:27:33;;;;;;;6.97;6.28;;;;;;;;;;10083562;28;21029;-68
2022/08/10 20:32:56;;;;;;;6.57;5.97;;;;;;;;;;10088763;28;20035;-69
2022/08/10 20:38:15;;;;;;;9.63;6.63;;;;;;;;;;10083084;28;20134;-69
2022/08/10 20:43:21;;;;;;;12.75;6.13;;;;;;;;;;10069471;28;20477;-68
2022/08/10 20:48:29;;;;;;;6.72;6.03;;;;;;;;;;10098282;28;20450;-68
2022/08/10 20:53:30;;;;;;;7.22;6.30;;;;;;;;;;10111221;28;20125;-69
2022/08/10 20:58:32;;;;;;;6.53;5.87;;;;;;;;;;10110186;28;21305;-69
2022/08/10 21:03:34;;;;;;;6.15;5.55;;;;;;;;;;10101614;28;20134;-66
2022/08/10 21:08:56;;;;;;;7.70;5.65;;;;;;;;;;10111821;28;20089;-67
2022/08/10 21:14:04;;;;;;;8.63;6.35;;;;;;;;;;10094611;28;20044;-68
2022/08/10 21:19:24;;;;;;;7.75;5.53;;;;;;;;;;10110160;28;20086;-68
2022/08/10 21:24:23;;;;;;;5.40;4.90;;;;;;;;;;10096212;28;20046;-67
2022/08/10 23:00:40;;;;;;;6.15;4.88;;;;;;;;;;10105301;28;20446;-68
2022/08/10 23:05:41;;;;;;;5.70;4.63;;;;;;;;;;10103799;28;20043;-68
2022/08/10 23:10:40;;;;;;;5.15;4.65;;;;;;;;;;10099310;28;20038;-69
2022/08/10 23:20:54;;;;;;;5.43;4.57;;;;;;;;;;10103172;28;20081;-69
2022/08/10 23:25:52;;;;;;;4.72;4.22;;;;;;;;;;10116602;28;20481;-70
2022/08/10 23:30:54;;;;;;;5.00;4.50;;;;;;;;;;10111511;28;20058;-69
2022/08/10 23:35:53;;;;;;;10.18;4.45;;;;;;;;;;10108988;28;20121;-69
2022/08/10 23:41:09;;;;;;;5.60;4.53;;;;;;;;;;10122938;28;20055;-70
2022/08/10 23:46:07;;;;;;;6.13;4.65;;;;;;;;;;10106731;28;20043;-69
2022/08/10 23:51:05;;;;;;;5.25;4.30;;;;;;;;;;10111980;28;20078;-70
2022/08/10 23:56:18;;;;;;;7.10;4.75;;;;;;;;;;10107259;28;20557;-69
